SBCY/CGB METAR and TAF weather

Enter ICAO airport designator
Station Type Date Time Source
SBCY METAR 2024/02/26 18:00 UTC NOAA

SBCY 261800Z 31004KT 9999 VCSH SCT020 FEW025TCU SCT100 34/21 Q1011


Station Type Date Time Source
SBCY Decoded METAR 2024/02/26 18:00 UTC NOAA

Cuiaba Aeroporto , Brazil (SBCY) 15-39S 056-06W 182M
Feb 26, 2024 - 01:00 PM EST / 2024.02.26 1800 UTC
Wind: from the NW (310 degrees) at 5 MPH (4 KT):0
Visibility: greater than 7 mile(s):0
Sky conditions: partly cloudy
Weather: showers in the vicinity; Towering cumulus clouds observed
Temperature: 93 F (34 C)
Heat index: 98.4 F (36.9 C):1
Dew Point: 69 F (21 C)
Relative Humidity: 46%
Pressure (altimeter): 29.85 in. Hg (1011 hPa)
ob: SBCY 261800Z 31004KT 9999 VCSH SCT020 FEW025TCU SCT100 34/21 Q1011
cycle: 18

Station Type Date Time Source
SBCY TAF 2024/02/26 18:03 UTC NOAA